Time;durP1;ratioP1;P1;durP2;ratioP2;P2;SDS_P1;SDS_P2;PMS_P1;PMS_P2;Temp;Humidity;BMP_temperature;BMP_pressure;BME280_temperature;BME280_humidity;BME280_pressure;Samples;Min_cycle;Max_cycle;Signal;HPM_P1;HPM_P2
2022/10/12 00:01:17;;;;;;;13.82;6.15;;;;;;;-143.48;75.31;80223.88;5034229;28;20025;-71
2022/10/12 00:03:42;;;;;;;11.63;5.38;;;;;;;-143.48;75.43;80208.00;5016573;28;20032;-71
2022/10/12 00:06:11;;;;;;;12.10;5.15;;;;;;;-143.48;75.31;80213.94;5034020;28;20025;-71
2022/10/12 00:08:38;;;;;;;10.88;5.75;;;;;;;-143.48;75.21;80209.97;5034009;28;20524;-71
2022/10/12 00:11:06;;;;;;;15.95;5.60;;;;;;;-143.48;75.61;80217.91;5016474;28;20481;-71
2022/10/12 00:13:31;;;;;;;12.05;5.43;;;;;;;-143.48;75.85;80213.94;5016131;28;20022;-71
2022/10/12 00:16:01;;;;;;;13.68;5.72;;;;;;;-143.48;75.68;80209.97;5033848;28;20036;-72
2022/10/12 00:18:27;;;;;;;18.80;6.03;;;;;;;-143.48;75.27;80202.03;5015955;28;20120;-69
2022/10/12 00:21:13;;;;;;;15.85;5.63;;;;;;;-143.48;75.36;80208.00;5015934;28;20072;-69
2022/10/12 00:23:40;;;;;;;20.70;6.07;;;;;;;-143.48;75.45;80202.03;5033851;28;20387;-71
2022/10/12 00:26:15;;;;;;;15.82;5.22;;;;;;;-143.48;75.33;80217.91;5033670;28;20064;-71
2022/10/12 00:28:40;;;;;;;18.05;6.07;;;;;;;-143.48;76.10;80204.03;5033772;28;20029;-70
2022/10/12 00:31:12;;;;;;;13.27;5.22;;;;;;;-143.48;75.93;80209.97;5033673;28;20021;-70
2022/10/12 00:33:38;;;;;;;12.50;5.63;;;;;;;-143.48;75.91;80215.94;5015882;28;20061;-70
2022/10/12 00:36:32;;;;;;;14.77;5.50;;;;;;;-143.48;75.42;80213.94;5015877;28;20026;-69
2022/10/12 00:38:59;;;;;;;13.70;5.50;;;;;;;-143.48;75.77;80209.97;5031170;28;20050;-70
2022/10/12 00:41:31;;;;;;;16.05;5.55;;;;;;;-143.48;75.75;80219.91;5033312;28;20033;-70
2022/10/12 00:43:57;;;;;;;12.27;4.93;;;;;;;-143.48;75.30;80208.00;5033296;28;20402;-70
2022/10/12 00:46:27;;;;;;;11.13;4.85;;;;;;;-143.48;75.69;80208.00;5033431;28;20056;-71
2022/10/12 00:49:00;;;;;;;10.27;4.95;;;;;;;-143.48;75.33;80217.91;5015650;28;20397;-70
2022/10/12 00:51:26;;;;;;;10.82;5.07;;;;;;;-143.48;75.41;80229.81;5033272;28;20041;-71
2022/10/12 00:53:58;;;;;;;13.52;5.53;;;;;;;-143.48;75.62;80231.81;5015479;28;20025;-70
2022/10/12 00:56:25;;;;;;;13.25;5.03;;;;;;;-143.48;75.78;80235.78;5033122;28;20053;-70
2022/10/12 00:58:53;;;;;;;10.25;4.80;;;;;;;-143.48;75.77;80239.75;5015580;28;20025;-70
2022/10/12 01:01:20;;;;;;;12.43;5.25;;;;;;;-143.48;75.63;80233.78;5033287;28;20482;-70
2022/10/12 01:03:46;;;;;;;12.50;4.88;;;;;;;-143.48;75.45;80233.78;5033109;28;20033;-70
2022/10/12 01:06:12;;;;;;;12.80;5.93;;;;;;;-143.48;76.15;80221.88;5033255;28;20033;-70
2022/10/12 01:08:38;;;;;;;11.75;4.88;;;;;;;-143.48;75.77;80227.84;5033088;28;20026;-70
2022/10/12 01:11:04;;;;;;;11.10;4.95;;;;;;;-143.48;76.10;80229.81;5015537;28;20120;-70
2022/10/12 01:13:30;;;;;;;9.77;4.70;;;;;;;-143.48;75.63;80231.81;5015366;28;20476;-70
2022/10/12 01:16:07;;;;;;;9.85;4.60;;;;;;;-143.48;75.86;80235.78;5015291;28;20033;-70
2022/10/12 01:18:58;;;;;;;14.52;4.78;;;;;;;-143.48;75.83;80237.75;5033140;28;20032;-70
2022/10/12 01:21:25;;;;;;;10.10;4.47;;;;;;;-143.48;76.23;80209.97;5033094;28;20030;-70
2022/10/12 01:24:13;;;;;;;11.98;4.95;;;;;;;-143.48;75.72;80208.00;5033028;28;20108;-69
2022/10/12 01:26:48;;;;;;;10.88;4.20;;;;;;;-143.48;75.38;80213.94;4994984;28;20063;-70
2022/10/12 01:29:40;;;;;;;10.43;4.65;;;;;;;-143.48;75.33;80215.94;5032973;28;20033;-70
2022/10/12 01:32:23;;;;;;;11.80;4.43;;;;;;;-143.48;75.59;80209.97;5015365;28;20500;-70
2022/10/12 01:35:00;;;;;;;12.10;4.47;;;;;;;-143.48;75.54;80206.00;5032905;28;20268;-70
2022/10/12 01:37:34;;;;;;;14.77;4.68;;;;;;;-143.48;75.25;80200.06;5032931;28;20460;-70
2022/10/12 01:40:05;;;;;;;12.98;4.55;;;;;;;-143.48;75.34;80209.97;5032924;28;20017;-69
2022/10/12 01:42:35;;;;;;;11.00;4.35;;;;;;;-143.48;75.46;80206.00;5032786;28;20385;-71
2022/10/12 01:45:09;;;;;;;11.80;4.55;;;;;;;-143.48;75.54;80208.00;5032713;28;20052;-70
2022/10/12 01:47:38;;;;;;;10.98;4.40;;;;;;;-143.48;75.59;80219.91;5015092;28;20138;-69
2022/10/12 01:50:06;;;;;;;8.38;4.28;;;;;;;-143.48;75.92;80221.88;5016713;28;20057;-70
2022/10/12 01:53:06;;;;;;;8.68;4.18;;;;;;;-143.48;75.28;80221.88;5036574;28;20032;-70
2022/10/12 01:56:14;;;;;;;13.27;4.50;;;;;;;-143.48;75.14;80221.88;4975472;28;20118;-70
2022/10/12 01:58:45;;;;;;;9.75;4.40;;;;;;;-143.48;76.09;80223.88;4959224;28;20046;-70
2022/10/12 02:01:29;;;;;;;12.82;5.05;;;;;;;-143.48;76.06;80227.84;4959413;28;20151;-70
2022/10/12 02:04:06;;;;;;;10.68;4.57;;;;;;;-143.48;76.54;80221.88;5013552;28;20045;-69
2022/10/12 02:06:38;;;;;;;13.18;5.07;;;;;;;-143.48;76.59;80221.88;5036357;28;20099;-70
2022/10/12 02:09:31;;;;;;;14.63;4.93;;;;;;;-143.48;76.51;80219.91;5036438;28;20041;-70
2022/10/12 02:12:02;;;;;;;21.67;7.07;;;;;;;-143.48;75.72;80202.03;5018323;28;20112;-70
2022/10/12 02:14:34;;;;;;;10.52;4.70;;;;;;;-143.48;76.13;80223.88;5036059;28;20025;-71
2022/10/12 02:17:03;;;;;;;13.82;5.55;;;;;;;-143.48;76.90;80202.03;5036288;28;20033;-70
2022/10/12 02:19:36;;;;;;;15.80;5.57;;;;;;;-143.48;76.56;80209.97;5018451;28;20033;-71
2022/10/12 02:22:04;;;;;;;16.35;6.57;;;;;;;-143.48;77.25;80206.00;5018461;28;20365;-71
2022/10/12 02:24:31;;;;;;;16.98;6.10;;;;;;;-143.48;77.36;80200.06;5036028;28;20392;-71
2022/10/12 02:26:59;;;;;;;16.98;6.03;;;;;;;-143.48;77.28;80196.09;5035963;28;20021;-70
2022/10/12 02:29:30;;;;;;;15.68;6.20;;;;;;;-143.48;77.53;80208.00;5018162;28;20047;-70
2022/10/12 02:32:04;;;;;;;17.25;6.60;;;;;;;-143.48;77.51;80206.00;5035791;28;20021;-70
2022/10/12 02:34:35;;;;;;;16.90;6.55;;;;;;;-143.48;78.22;80206.00;5018020;28;20121;-70
2022/10/12 02:37:11;;;;;;;20.60;6.85;;;;;;;-143.48;78.16;80213.94;5035824;28;20065;-70
2022/10/12 02:39:49;;;;;;;16.92;6.32;;;;;;;-143.48;78.22;80202.03;5017931;28;20030;-71
2022/10/12 02:42:21;;;;;;;17.02;6.65;;;;;;;-143.48;78.75;80223.88;5035621;28;20116;-70
2022/10/12 02:44:47;;;;;;;16.95;5.93;;;;;;;-143.48;78.72;80200.06;5014604;28;20054;-70
2022/10/12 02:47:14;;;;;;;12.15;6.68;;;;;;;-143.48;78.20;80208.00;5014677;28;20030;-70
2022/10/12 02:49:42;;;;;;;13.48;6.10;;;;;;;-143.48;78.14;80206.00;5015738;28;20032;-70
2022/10/12 02:52:07;;;;;;;17.60;7.13;;;;;;;-143.48;78.22;80209.97;5015805;28;20041;-70
2022/10/12 02:54:33;;;;;;;18.42;6.35;;;;;;;-143.48;78.38;80196.09;5015720;28;20022;-70
2022/10/12 02:56:58;;;;;;;14.10;6.35;;;;;;;-143.48;78.34;80186.16;5014675;28;20083;-70
2022/10/12 02:59:23;;;;;;;16.67;6.28;;;;;;;-143.48;77.85;80194.09;5014452;28;20103;-70
2022/10/12 03:01:49;;;;;;;14.68;6.47;;;;;;;-143.48;78.09;80196.09;5014051;28;20025;-70
2022/10/12 03:04:14;;;;;;;19.63;6.25;;;;;;;-143.48;78.18;80190.13;5030804;28;20049;-70
2022/10/12 03:06:41;;;;;;;18.60;6.57;;;;;;;-143.48;77.68;80178.22;5015516;28;20385;-71
2022/10/12 03:09:07;;;;;;;14.23;6.70;;;;;;;-143.48;77.06;80194.09;5015569;28;20022;-71
2022/10/12 03:11:32;;;;;;;16.80;6.50;;;;;;;-143.48;77.46;80198.06;5014225;28;20030;-70
2022/10/12 03:13:58;;;;;;;15.90;6.45;;;;;;;-143.48;77.80;80190.13;5015329;28;20385;-70
2022/10/12 03:16:23;;;;;;;16.70;6.63;;;;;;;-143.48;77.17;80209.97;5015199;28;20029;-70
2022/10/12 03:18:49;;;;;;;16.83;6.63;;;;;;;-143.48;77.47;80215.94;5013951;28;20496;-69
2022/10/12 03:21:14;;;;;;;16.27;6.57;;;;;;;-143.48;77.78;80209.97;5013926;28;20412;-70
2022/10/12 03:23:40;;;;;;;15.82;6.85;;;;;;;-143.48;77.43;80217.91;5015128;28;20047;-70
2022/10/12 03:26:07;;;;;;;21.13;6.63;;;;;;;-143.48;77.67;80215.94;5015027;28;20113;-70
2022/10/12 03:28:32;;;;;;;15.57;6.50;;;;;;;-143.48;77.58;80217.91;5013722;28;20512;-70
2022/10/12 03:30:58;;;;;;;14.48;6.50;;;;;;;-143.48;77.64;80204.03;5015062;28;20049;-70
2022/10/12 03:33:24;;;;;;;16.45;6.68;;;;;;;-143.48;77.43;80217.91;5015022;28;20021;-69
2022/10/12 03:35:50;;;;;;;18.92;6.38;;;;;;;-143.48;77.17;80221.88;5030125;28;20065;-70
2022/10/12 03:38:16;;;;;;;15.73;6.10;;;;;;;-143.48;77.58;80213.94;5013500;28;20112;-70
2022/10/12 03:40:42;;;;;;;15.68;6.43;;;;;;;-143.48;77.33;80223.88;5013620;28;20393;-70
2022/10/12 03:43:07;;;;;;;15.55;6.30;;;;;;;-143.48;76.82;80231.81;5013533;28;20071;-70
2022/10/12 03:45:34;;;;;;;16.45;6.70;;;;;;;-143.48;78.15;80233.78;5013285;28;20189;-70
2022/10/12 03:48:00;;;;;;;13.55;6.07;;;;;;;-143.48;78.07;80235.78;5013445;28;20485;-70
2022/10/12 03:50:26;;;;;;;13.43;6.53;;;;;;;-143.48;77.88;80235.78;5013378;28;20033;-72
2022/10/12 03:52:51;;;;;;;23.00;6.57;;;;;;;-143.48;77.93;80249.66;5013719;28;20496;-70
2022/10/12 03:55:16;;;;;;;16.27;6.25;;;;;;;-143.48;78.12;80241.72;5014599;28;20051;-71
2022/10/12 03:57:42;;;;;;;12.93;5.90;;;;;;;-143.48;77.65;80243.72;5014482;28;20026;-70
2022/10/12 04:00:08;;;;;;;14.45;6.68;;;;;;;-143.48;77.44;80247.69;5014472;28;20388;-70
2022/10/12 04:02:33;;;;;;;15.75;6.60;;;;;;;-143.48;77.56;80251.66;5014352;28;20424;-70
2022/10/12 04:04:58;;;;;;;15.00;6.05;;;;;;;-143.48;77.44;80259.59;5014312;28;20363;-70
2022/10/12 04:07:23;;;;;;;16.92;6.55;;;;;;;-143.48;77.72;80261.56;5013117;28;20030;-70
2022/10/12 04:09:49;;;;;;;13.75;6.38;;;;;;;-143.48;77.87;80259.59;5014365;28;20502;-70
2022/10/12 04:12:14;;;;;;;14.32;6.38;;;;;;;-143.48;77.76;80251.66;5028859;28;20445;-70
2022/10/12 04:14:40;;;;;;;18.42;6.65;;;;;;;-143.48;78.04;80261.56;5014161;28;20436;-71
2022/10/12 04:17:06;;;;;;;14.68;6.28;;;;;;;-143.48;78.06;80269.50;5014183;28;20018;-71
2022/10/12 04:19:31;;;;;;;13.68;5.82;;;;;;;-143.48;77.77;80267.53;5013045;28;20482;-70
2022/10/12 04:21:56;;;;;;;15.88;6.30;;;;;;;-143.48;77.11;80275.44;5014079;28;20026;-71
2022/10/12 04:24:21;;;;;;;13.82;5.70;;;;;;;-143.48;77.23;80273.47;5014015;28;20084;-71
2022/10/12 04:26:47;;;;;;;17.58;6.45;;;;;;;-143.48;77.20;80275.44;5014076;28;20014;-71
2022/10/12 04:29:12;;;;;;;16.33;5.90;;;;;;;-143.48;77.18;80271.50;5014051;28;20029;-71
2022/10/12 04:31:38;;;;;;;14.63;5.90;;;;;;;-143.48;76.89;80279.41;5012734;28;20116;-70
2022/10/12 04:34:04;;;;;;;14.10;6.00;;;;;;;-143.48;76.83;80283.41;4996223;28;20033;-71
2022/10/12 04:36:29;;;;;;;12.57;5.93;;;;;;;-143.48;76.83;80271.50;5014078;28;20101;-70
2022/10/12 04:38:54;;;;;;;12.88;6.00;;;;;;;-143.48;77.14;80289.34;5012613;28;20030;-70
2022/10/12 04:41:19;;;;;;;15.05;5.85;;;;;;;-143.48;77.17;80273.47;5014113;28;20026;-71
2022/10/12 04:43:45;;;;;;;11.90;5.80;;;;;;;-143.48;76.68;80285.38;5015309;28;20557;-71
2022/10/12 04:46:10;;;;;;;11.18;5.85;;;;;;;-143.48;76.62;80297.28;5032152;28;20124;-70
2022/10/12 04:48:36;;;;;;;14.90;6.72;;;;;;;-143.48;77.04;80277.44;5033381;28;20033;-71
2022/10/12 04:51:04;;;;;;;14.32;6.50;;;;;;;-143.48;76.70;80293.31;5037244;28;20040;-72
2022/10/12 04:53:30;;;;;;;17.38;6.70;;;;;;;-143.48;77.11;80295.28;5046114;28;20048;-70
2022/10/12 04:55:56;;;;;;;16.10;6.28;;;;;;;-143.48;77.32;80293.31;5015747;28;20032;-70
2022/10/12 04:58:22;;;;;;;13.07;6.38;;;;;;;-143.48;76.86;80297.28;5042330;28;20040;-71
2022/10/12 05:00:48;;;;;;;13.18;6.22;;;;;;;-143.48;76.91;80285.38;5048228;28;20029;-71
2022/10/12 05:03:14;;;;;;;14.82;6.57;;;;;;;-143.48;76.97;80285.38;5045883;28;20030;-71
2022/10/12 05:05:39;;;;;;;15.65;6.72;;;;;;;-143.48;76.49;80291.31;5007723;28;20025;-70
2022/10/12 05:08:05;;;;;;;16.00;6.75;;;;;;;-143.48;76.89;80297.28;5035173;28;20079;-71
2022/10/12 05:10:30;;;;;;;12.32;6.22;;;;;;;-143.48;77.41;80275.44;5025683;28;20384;-71
2022/10/12 05:12:56;;;;;;;13.13;6.90;;;;;;;-143.48;77.01;80263.56;5027362;28;20028;-70
2022/10/12 05:15:21;;;;;;;17.92;7.20;;;;;;;-143.48;77.17;80283.41;5017217;28;20026;-69
2022/10/12 05:17:46;;;;;;;15.13;7.07;;;;;;;-143.48;77.47;80281.41;5038351;28;20021;-72
2022/10/12 05:20:12;;;;;;;16.65;7.72;;;;;;;-143.48;77.32;80297.28;5042752;28;20022;-71
2022/10/12 05:22:37;;;;;;;16.33;7.43;;;;;;;-143.48;77.38;80281.41;5024510;28;20033;-70
2022/10/12 05:25:04;;;;;;;18.23;7.45;;;;;;;-143.48;76.99;80285.38;5036212;28;20087;-71
2022/10/12 05:27:29;;;;;;;16.75;7.18;;;;;;;-143.48;76.54;80281.41;5030575;28;20028;-70
2022/10/12 05:29:55;;;;;;;16.27;7.50;;;;;;;-143.48;76.39;80295.28;5035022;28;20029;-70
2022/10/12 05:32:21;;;;;;;15.02;7.18;;;;;;;-143.48;76.81;80289.34;5052307;28;20105;-71
2022/10/12 05:34:46;;;;;;;18.52;7.00;;;;;;;-143.48;76.91;80281.41;5053433;28;20075;-71
2022/10/12 05:37:11;;;;;;;14.05;6.88;;;;;;;-143.48;76.77;80273.47;5047748;28;20025;-72
2022/10/12 05:39:37;;;;;;;14.93;6.53;;;;;;;-143.48;76.85;80279.41;5030844;28;20029;-70
2022/10/12 05:42:03;;;;;;;17.73;7.00;;;;;;;-143.48;77.01;80281.41;5049675;28;20104;-70
2022/10/12 05:44:29;;;;;;;18.95;6.68;;;;;;;-143.48;77.01;80273.47;5041496;28;20125;-71
2022/10/12 05:46:54;;;;;;;15.77;7.20;;;;;;;-143.48;77.06;80277.44;5019092;28;20503;-71
2022/10/12 05:49:19;;;;;;;15.20;7.60;;;;;;;-143.48;76.98;80267.53;5037048;28;20053;-69
2022/10/12 05:51:45;;;;;;;18.45;7.45;;;;;;;-143.48;77.20;80273.47;5019175;28;20068;-71
2022/10/12 05:54:10;;;;;;;13.80;7.38;;;;;;;-143.48;77.06;80263.56;5039775;28;20440;-71
2022/10/12 05:56:35;;;;;;;18.52;7.30;;;;;;;-143.48;77.06;80271.50;5023648;28;20033;-70
2022/10/12 05:59:02;;;;;;;18.15;7.68;;;;;;;-143.48;76.88;80269.50;5019629;28;20026;-71
2022/10/12 06:01:27;;;;;;;17.45;7.05;;;;;;;-143.48;76.75;80255.63;5038795;28;20509;-71
2022/10/12 06:03:53;;;;;;;15.18;7.00;;;;;;;-143.48;76.21;80277.44;5019483;28;20041;-71
2022/10/12 06:06:19;;;;;;;26.80;7.63;;;;;;;-143.48;76.67;80271.50;5029134;28;20005;-69
2022/10/12 06:08:45;;;;;;;13.07;6.80;;;;;;;-143.48;76.25;80269.50;5047829;28;20032;-70
2022/10/12 06:11:10;;;;;;;15.05;6.80;;;;;;;-143.48;76.01;80269.50;5025354;28;20026;-70
2022/10/12 06:13:35;;;;;;;15.95;6.68;;;;;;;-143.48;75.83;80267.53;5024992;28;20443;-71
2022/10/12 06:16:01;;;;;;;15.48;6.50;;;;;;;-143.48;75.88;80255.63;5047547;28;20491;-70
2022/10/12 06:18:27;;;;;;;11.98;6.18;;;;;;;-143.48;75.12;80265.53;5036098;28;20037;-70
2022/10/12 06:20:53;;;;;;;12.20;6.07;;;;;;;-143.48;75.53;80269.50;5036213;28;20025;-70
2022/10/12 06:23:20;;;;;;;14.43;6.75;;;;;;;-143.48;75.72;80263.56;5017925;28;20535;-70
2022/10/12 06:25:47;;;;;;;11.68;6.03;;;;;;;-143.48;75.69;80253.63;5035843;28;20029;-70
2022/10/12 06:28:13;;;;;;;12.55;6.70;;;;;;;-143.48;75.62;80257.59;5017786;28;20366;-70
2022/10/12 06:30:39;;;;;;;14.50;6.40;;;;;;;-143.48;75.75;80251.66;5035789;28;20035;-71
2022/10/12 06:33:04;;;;;;;18.88;6.78;;;;;;;-143.48;75.29;80265.53;5035891;28;20108;-70
2022/10/12 06:35:29;;;;;;;14.23;6.13;;;;;;;-143.48;75.70;80255.63;5035287;28;20033;-70
2022/10/12 06:37:55;;;;;;;14.38;6.78;;;;;;;-143.48;75.04;80235.78;5035712;28;20030;-70
2022/10/12 06:40:20;;;;;;;15.10;6.38;;;;;;;-143.48;74.97;80239.75;5035959;28;20025;-70
2022/10/12 06:42:47;;;;;;;16.00;6.65;;;;;;;-143.48;74.74;80227.84;5018051;28;20056;-70
2022/10/12 06:45:13;;;;;;;15.95;6.85;;;;;;;-143.48;74.68;80209.97;5017717;28;20092;-70
2022/10/12 06:47:39;;;;;;;17.67;6.32;;;;;;;-143.48;74.56;80188.16;5017921;28;20053;-70
2022/10/12 06:50:05;;;;;;;18.02;6.60;;;;;;;-143.48;74.17;80162.34;5035628;28;20447;-70
2022/10/12 06:52:30;;;;;;;15.23;6.78;;;;;;;-143.48;74.05;80162.34;5017835;28;20025;-70
2022/10/12 06:54:56;;;;;;;15.93;6.95;;;;;;;-143.48;73.81;80138.56;5017830;28;20502;-70
2022/10/12 06:57:21;;;;;;;16.52;7.35;;;;;;;-143.48;72.93;80120.69;5017859;28;20044;-72
2022/10/12 06:59:47;;;;;;;17.48;7.32;;;;;;;-143.48;72.15;80106.81;5017660;28;20052;-72
2022/10/12 07:02:12;;;;;;;13.80;6.90;;;;;;;-143.48;72.27;80102.84;5017937;28;20025;-70
2022/10/12 07:04:37;;;;;;;15.20;7.45;;;;;;;-143.48;72.76;80079.03;5035310;28;20361;-70
2022/10/12 07:07:03;;;;;;;17.70;7.38;;;;;;;-143.48;72.37;80069.09;5035324;28;20018;-70
2022/10/12 07:09:28;;;;;;;16.02;8.68;;;;;;;-143.48;71.53;80057.19;5035182;28;20025;-70
2022/10/12 07:11:54;;;;;;;17.17;8.27;;;;;;;-143.48;71.30;80025.47;5035276;28;20028;-70
2022/10/12 07:14:20;;;;;;;21.38;8.93;;;;;;;-143.48;69.02;79916.34;5017318;28;20033;-70
2022/10/12 07:16:46;;;;;;;22.08;8.48;;;;;;;-143.48;66.64;79870.72;5034978;28;20033;-71
2022/10/12 07:19:11;;;;;;;23.05;8.20;;;;;;;-143.48;67.04;79914.34;5035349;28;20029;-71
2022/10/12 07:21:37;;;;;;;21.67;9.13;;;;;;;-143.48;68.24;79940.16;5017361;28;20029;-71
2022/10/12 07:24:02;;;;;;;18.35;8.20;;;;;;;-143.48;68.19;79948.09;5017133;28;20044;-70
2022/10/12 07:26:28;;;;;;;15.90;7.50;;;;;;;-143.48;69.09;79975.84;5034909;28;20021;-70
2022/10/12 07:28:53;;;;;;;13.48;7.28;;;;;;;-143.48;69.84;79989.75;5017093;28;20017;-71
2022/10/12 07:31:18;;;;;;;17.40;7.38;;;;;;;-143.48;69.99;79956.03;5022288;28;20025;-71
2022/10/12 07:33:44;;;;;;;18.80;7.85;;;;;;;-143.48;70.25;79971.88;5023303;28;20089;-71
2022/10/12 07:36:09;;;;;;;20.80;7.65;;;;;;;-143.48;71.00;79971.88;5046249;28;20052;-70
2022/10/12 07:38:34;;;;;;;18.75;7.03;;;;;;;-143.48;70.77;79944.13;5021322;28;20112;-71
2022/10/12 07:41:01;;;;;;;17.02;7.97;;;;;;;-143.48;69.59;79908.41;5036730;28;20079;-71
2022/10/12 07:43:28;;;;;;;14.45;7.60;;;;;;;-143.48;65.67;79719.94;5036833;28;20022;-71
2022/10/12 07:45:54;;;;;;;18.13;8.55;;;;;;;-143.48;62.90;79682.25;5021217;28;20050;-72
2022/10/12 07:48:20;;;;;;;20.33;7.00;;;;;;;-143.48;63.03;79704.06;5022101;28;20090;-72
2022/10/12 07:50:46;;;;;;;17.70;7.13;;;;;;;-143.48;61.90;79650.50;5042763;28;20056;-72
2022/10/12 07:53:11;;;;;;;13.95;6.90;;;;;;;-143.48;60.78;79680.25;5020974;28;20487;-71
2022/10/12 07:55:37;;;;;;;18.60;7.05;;;;;;;-143.48;63.19;79739.78;5036056;28;20098;-71
2022/10/12 07:58:02;;;;;;;19.95;6.88;;;;;;;-143.48;62.82;79719.94;5034474;28;20064;-71
2022/10/12 08:00:28;;;;;;;14.07;6.43;;;;;;;-143.48;61.55;79656.44;5034554;28;20025;-72
2022/10/12 08:02:53;;;;;;;18.75;7.07;;;;;;;-143.48;59.39;79600.91;5016074;28;20032;-71
2022/10/12 08:05:20;;;;;;;15.57;6.97;;;;;;;-143.48;56.96;79384.66;5016197;28;20345;-72
2022/10/12 08:07:46;;;;;;;13.95;6.28;;;;;;;-143.48;51.34;79237.88;5016639;28;20022;-73
2022/10/12 08:10:12;;;;;;;17.35;5.90;;;;;;;-143.48;50.17;79233.91;5021749;28;20036;-75
2022/10/12 08:12:37;;;;;;;17.75;6.35;;;;;;;-143.48;52.58;79327.13;5038819;28;20025;-72
2022/10/12 08:15:03;;;;;;;17.55;6.30;;;;;;;-143.48;48.23;79108.94;5037008;28;20108;-74
2022/10/12 08:17:28;;;;;;;17.20;6.22;;;;;;;-143.48;45.52;78991.91;5039384;28;20029;-74
2022/10/12 08:19:53;;;;;;;17.27;5.63;;;;;;;-143.48;44.50;78974.06;5039657;28;20469;-72
2022/10/12 08:22:19;;;;;;;18.67;6.50;;;;;;;-143.48;42.67;78833.22;5038040;28;20122;-72
2022/10/12 08:24:44;;;;;;;14.00;5.10;;;;;;;-143.48;42.76;78853.06;5038577;28;20807;-74
2022/10/12 08:27:10;;;;;;;12.73;5.15;;;;;;;-143.48;40.75;78734.06;5038129;28;20036;-75
2022/10/12 08:29:35;;;;;;;18.00;5.45;;;;;;;-143.48;40.81;78757.88;4988161;28;20040;-72
2022/10/12 08:32:01;;;;;;;16.65;5.35;;;;;;;-143.48;39.08;78579.34;5020274;28;20065;-74
2022/10/12 08:34:29;;;;;;;13.95;4.50;;;;;;;-143.48;39.08;78599.19;5017801;28;20025;-72
2022/10/12 08:36:58;;;;;;;12.23;4.50;;;;;;;-143.48;38.30;78597.22;4998680;28;20098;-78
2022/10/12 08:39:24;;;;;;;20.33;4.72;;;;;;;-143.48;41.85;78888.78;5015025;28;20432;-73
2022/10/12 08:41:55;;;;;;;12.48;4.75;;;;;;;-143.48;41.38;78775.72;5014668;28;20109;-73
2022/10/12 08:44:45;;;;;;;14.85;4.50;;;;;;;-143.48;38.33;78553.56;5014196;28;20092;-73
2022/10/12 08:47:10;;;;;;;14.63;4.65;;;;;;;-143.48;37.69;78527.78;5013515;28;20013;-73
2022/10/12 08:49:39;;;;;;;12.80;4.40;;;;;;;-143.48;37.53;78537.72;5013548;28;20503;-72
2022/10/12 08:52:13;;;;;;;13.02;4.75;;;;;;;-143.48;36.75;78418.72;5013620;28;20389;-72
2022/10/12 08:54:44;;;;;;;14.90;4.78;;;;;;;-143.48;35.88;78416.72;5012385;28;20029;-72
2022/10/12 08:57:16;;;;;;;13.55;4.43;;;;;;;-143.48;35.25;78385.00;5014140;28;20535;-73
2022/10/12 08:59:41;;;;;;;13.55;4.40;;;;;;;-143.48;34.68;78281.88;5012088;28;20104;-73
2022/10/12 09:02:34;;;;;;;11.25;4.32;;;;;;;-143.48;35.94;78470.28;5010851;28;20111;-73
2022/10/12 09:05:05;;;;;;;15.90;4.55;;;;;;;-143.48;34.58;78287.81;5013187;28;20540;-72
2022/10/12 09:07:44;;;;;;;14.55;4.47;;;;;;;-143.48;33.73;78162.88;5013714;28;20014;-73
2022/10/12 09:10:37;;;;;;;15.52;4.68;;;;;;;-143.48;34.37;78287.81;5014026;28;20022;-73
2022/10/12 09:13:41;;;;;;;15.43;4.35;;;;;;;-143.48;33.07;78115.28;4995673;28;20540;-73
2022/10/12 09:16:21;;;;;;;15.57;4.82;;;;;;;-143.48;34.18;78220.41;5013348;28;20026;-74
2022/10/12 09:18:52;;;;;;;13.25;4.88;;;;;;;-143.48;32.90;78125.22;5010808;28;20404;-74
2022/10/12 09:21:20;;;;;;;9.63;3.78;;;;;;;-143.48;32.41;78095.47;5012202;28;20492;-74
2022/10/12 09:23:46;;;;;;;16.67;4.28;;;;;;;-143.48;32.95;78107.34;5012159;28;20036;-74
2022/10/12 09:26:11;;;;;;;11.43;4.53;;;;;;;-143.48;32.08;78028.03;5011842;28;20041;-73
2022/10/12 09:28:54;;;;;;;20.47;4.30;;;;;;;-143.48;32.13;78043.91;4995813;28;20022;-73
2022/10/12 09:32:00;;;;;;;13.05;3.95;;;;;;;-143.48;31.34;77948.72;5014017;28;20026;-73
2022/10/12 09:34:26;;;;;;;12.73;3.75;;;;;;;-143.48;30.81;77948.72;5014316;28;20026;-74
2022/10/12 09:36:54;;;;;;;16.90;3.90;;;;;;;-143.48;30.09;77851.56;5013521;28;20378;-74
2022/10/12 09:39:25;;;;;;;13.20;3.83;;;;;;;-143.48;31.13;77988.38;5012567;28;20030;-74
2022/10/12 09:41:50;;;;;;;10.67;3.70;;;;;;;-143.48;31.20;77918.97;5012353;28;20048;-74
2022/10/12 09:44:27;;;;;;;13.15;3.65;;;;;;;-143.48;30.57;77913.03;4999693;28;20042;-74
2022/10/12 09:47:01;;;;;;;13.45;3.53;;;;;;;-143.48;31.03;77928.88;5019656;28;20046;-74
2022/10/12 09:49:49;;;;;;;9.30;3.28;;;;;;;-143.48;29.64;77746.44;5006007;28;20026;-74
2022/10/12 09:52:18;;;;;;;10.65;3.60;;;;;;;-143.48;29.95;77863.44;5014460;28;20018;-74
2022/10/12 09:54:50;;;;;;;8.55;3.20;;;;;;;-143.48;29.83;77861.47;5013628;28;20025;-73
2022/10/12 09:57:21;;;;;;;12.02;3.28;;;;;;;-143.48;33.57;78266.00;5018462;28;20056;-74
2022/10/12 09:59:47;;;;;;;13.35;3.20;;;;;;;-143.48;35.91;78523.81;5013933;28;20026;-73
2022/10/12 10:02:17;;;;;;;14.82;3.75;;;;;;;-143.48;36.68;78537.72;4998055;28;20021;-72
2022/10/12 10:04:45;;;;;;;12.00;3.30;;;;;;;-143.48;32.58;78162.88;5004019;28;20026;-74
2022/10/12 10:07:30;;;;;;;11.00;3.20;;;;;;;-143.48;32.86;78214.44;5001849;28;20037;-77
2022/10/12 10:10:06;;;;;;;9.82;3.13;;;;;;;-143.48;36.07;78496.06;5020891;28;20052;-75
2022/10/12 10:12:36;;;;;;;11.35;2.95;;;;;;;-143.48;37.48;78621.00;5025629;28;20018;-77
2022/10/12 10:15:02;;;;;;;15.93;3.47;;;;;;;-143.48;35.11;78434.59;5022756;28;20116;-73
2022/10/12 10:17:32;;;;;;;10.68;3.17;;;;;;;-143.48;37.28;78621.00;5019669;28;20079;-72
2022/10/12 10:20:02;;;;;;;14.63;3.28;;;;;;;-143.48;38.21;78654.72;5018724;28;20022;-73
2022/10/12 10:22:28;;;;;;;12.50;3.38;;;;;;;-143.48;38.92;78740.00;5020921;28;20021;-72
2022/10/12 10:24:59;;;;;;;12.88;3.00;;;;;;;-143.48;38.11;78710.25;5004741;28;20026;-71
2022/10/12 10:27:42;;;;;;;9.27;3.10;;;;;;;-143.48;39.14;78726.13;5017073;28;20025;-71
2022/10/12 10:30:16;;;;;;;13.57;3.55;;;;;;;-143.48;39.49;78668.59;5018210;28;20080;-72
2022/10/12 10:32:43;;;;;;;15.02;3.45;;;;;;;-143.48;37.52;78587.28;5009015;28;20421;-72
2022/10/12 10:35:11;;;;;;;12.20;3.28;;;;;;;-143.48;37.34;78607.13;4999750;28;20125;-75
2022/10/12 10:37:51;;;;;;;12.50;3.38;;;;;;;-143.48;38.98;78694.41;5024373;28;20026;-73
2022/10/12 10:40:27;;;;;;;12.20;3.15;;;;;;;-143.48;38.16;78628.94;5005030;28;20026;-74
2022/10/12 10:42:56;;;;;;;11.15;3.03;;;;;;;-143.48;38.39;78658.69;5015376;28;20044;-72
2022/10/12 10:45:30;;;;;;;17.20;3.10;;;;;;;-143.48;38.17;78642.81;5016228;28;20050;-73
2022/10/12 10:48:00;;;;;;;15.05;3.42;;;;;;;-143.48;39.65;78797.53;5000802;28;20026;-72
2022/10/12 10:50:39;;;;;;;10.40;3.15;;;;;;;-143.48;39.04;78680.50;5001861;28;20048;-72
2022/10/12 10:53:27;;;;;;;18.63;3.65;;;;;;;-143.48;38.80;78628.94;5020621;28;20006;-73
2022/10/12 10:56:04;;;;;;;12.63;3.10;;;;;;;-143.48;39.47;78749.94;5019041;28;20041;-73
2022/10/12 10:58:38;;;;;;;14.55;3.40;;;;;;;-143.48;39.51;78710.25;5026436;28;20045;-74
2022/10/12 11:01:20;;;;;;;10.75;3.08;;;;;;;-143.48;39.31;78686.47;5006605;28;20109;-74
2022/10/12 11:03:56;;;;;;;14.02;2.85;;;;;;;-143.48;39.81;78726.13;5029508;28;20033;-74
2022/10/12 11:06:36;;;;;;;12.40;3.17;;;;;;;-143.48;40.02;78714.22;5033230;28;20018;-75
2022/10/12 11:09:12;;;;;;;12.82;3.22;;;;;;;-143.48;38.74;78666.63;5013767;28;20026;-74
2022/10/12 11:11:40;;;;;;;12.98;2.90;;;;;;;-143.48;38.90;78672.56;5032901;28;20030;-75
2022/10/12 11:14:18;;;;;;;11.57;2.38;;;;;;;-143.48;38.24;78577.38;5030768;28;20041;-75
2022/10/12 11:16:49;;;;;;;11.50;2.47;;;;;;;-143.48;37.59;78640.84;5021092;28;20049;-72
2022/10/12 11:19:41;;;;;;;10.27;2.75;;;;;;;-143.48;37.99;78656.72;5000411;28;20124;-73